Time;durP1;ratioP1;P1;durP2;ratioP2;P2;SDS_P1;SDS_P2;PMS_P1;PMS_P2;Temp;Humidity;BMP_temperature;BMP_pressure;BME280_temperature;BME280_humidity;BME280_pressure;Samples;Min_cycle;Max_cycle;Signal;HPM_P1;HPM_P2
2021/07/11 00:00:50;;;;;;;10.88;9.02;;;;;;;;;;4943887;29;20066;-75
2021/07/11 00:03:16;;;;;;;10.40;9.20;;;;;;;;;;4948497;29;20032;-76
2021/07/11 00:05:42;;;;;;;12.30;9.05;;;;;;;;;;4948471;29;20027;-76
2021/07/11 00:08:08;;;;;;;10.60;8.55;;;;;;;;;;4948474;29;20054;-75
2021/07/11 00:10:34;;;;;;;9.82;8.75;;;;;;;;;;4947218;29;20031;-75
2021/07/11 00:13:00;;;;;;;11.77;8.75;;;;;;;;;;4950803;29;20063;-75
2021/07/11 00:15:27;;;;;;;13.88;9.60;;;;;;;;;;4946488;29;20370;-76
2021/07/11 00:17:54;;;;;;;9.88;8.30;;;;;;;;;;4946415;29;20035;-76
2021/07/11 00:20:21;;;;;;;11.25;9.27;;;;;;;;;;4946222;29;20039;-76
2021/07/11 00:22:47;;;;;;;10.13;8.63;;;;;;;;;;4948652;29;20026;-75
2021/07/11 00:25:13;;;;;;;13.68;9.57;;;;;;;;;;4947844;29;20373;-77
2021/07/11 00:27:39;;;;;;;16.83;8.55;;;;;;;;;;4945830;29;20043;-76
2021/07/11 00:30:06;;;;;;;12.77;9.45;;;;;;;;;;4939616;29;20670;-75
2021/07/11 00:32:32;;;;;;;13.13;8.75;;;;;;;;;;4943872;29;20035;-76
2021/07/11 00:34:58;;;;;;;10.00;8.85;;;;;;;;;;4945425;29;20055;-76
2021/07/11 00:37:24;;;;;;;15.02;9.50;;;;;;;;;;4948200;29;20051;-76
2021/07/11 00:39:50;;;;;;;12.82;9.40;;;;;;;;;;4942440;29;20024;-74
2021/07/11 00:42:19;;;;;;;11.70;8.68;;;;;;;;;;4942230;29;20130;-76
2021/07/11 00:44:45;;;;;;;12.23;9.65;;;;;;;;;;4942063;29;20028;-75
2021/07/11 00:47:12;;;;;;;10.63;9.63;;;;;;;;;;4944664;29;20042;-76
2021/07/11 00:49:43;;;;;;;12.52;9.13;;;;;;;;;;4936588;29;20028;-76
2021/07/11 00:52:10;;;;;;;14.05;9.30;;;;;;;;;;4940892;29;20509;-76
2021/07/11 00:54:37;;;;;;;11.10;9.43;;;;;;;;;;4946323;29;20051;-76
2021/07/11 00:57:03;;;;;;;13.68;9.98;;;;;;;;;;4945538;29;20023;-75
2021/07/11 00:59:29;;;;;;;14.90;10.63;;;;;;;;;;4944788;29;20027;-78
2021/07/11 01:02:07;;;;;;;11.20;10.00;;;;;;;;;;4958149;29;20067;-74
2021/07/11 01:04:38;;;;;;;10.68;9.45;;;;;;;;;;4962066;28;20473;-76
2021/07/11 01:07:09;;;;;;;12.82;9.98;;;;;;;;;;4944309;29;20056;-75
2021/07/11 01:09:38;;;;;;;12.32;9.55;;;;;;;;;;4940246;29;20030;-75
2021/07/11 01:12:06;;;;;;;13.52;9.90;;;;;;;;;;4943258;29;20039;-74
2021/07/11 01:14:33;;;;;;;13.30;9.45;;;;;;;;;;4940014;29;20055;-75
2021/07/11 01:17:00;;;;;;;11.27;9.63;;;;;;;;;;4945361;29;20173;-77
2021/07/11 01:19:29;;;;;;;11.88;9.45;;;;;;;;;;4941156;29;20531;-76
2021/07/11 01:22:00;;;;;;;13.50;10.23;;;;;;;;;;4948728;29;20046;-75
2021/07/11 01:24:31;;;;;;;11.15;9.68;;;;;;;;;;4941499;29;20455;-77
2021/07/11 01:27:09;;;;;;;12.85;10.10;;;;;;;;;;4955629;29;20042;-75
2021/07/11 01:29:35;;;;;;;15.70;10.20;;;;;;;;;;4948501;29;20028;-76
2021/07/11 01:32:02;;;;;;;11.93;9.43;;;;;;;;;;4950022;29;20031;-76
2021/07/11 01:34:28;;;;;;;10.82;9.48;;;;;;;;;;4942723;29;20031;-76
2021/07/11 01:36:55;;;;;;;11.60;9.43;;;;;;;;;;4937572;29;20114;-76
2021/07/11 01:39:21;;;;;;;12.43;10.35;;;;;;;;;;4939939;29;20041;-77
2021/07/11 01:41:48;;;;;;;11.05;8.93;;;;;;;;;;4939602;29;20070;-76
2021/07/11 01:44:17;;;;;;;12.30;8.85;;;;;;;;;;4947116;29;20031;-77
2021/07/11 01:46:43;;;;;;;13.10;9.45;;;;;;;;;;4936380;29;20106;-77
2021/07/11 01:49:10;;;;;;;9.98;8.88;;;;;;;;;;4935821;29;20078;-75
2021/07/11 01:51:36;;;;;;;11.48;8.73;;;;;;;;;;4935811;29;20454;-76
2021/07/11 01:54:02;;;;;;;13.90;8.25;;;;;;;;;;4942924;29;20028;-77
2021/07/11 01:56:29;;;;;;;12.25;8.70;;;;;;;;;;4941682;29;20027;-77
2021/07/11 01:58:55;;;;;;;11.05;9.05;;;;;;;;;;4965524;28;20024;-76
2021/07/11 02:01:21;;;;;;;12.18;8.60;;;;;;;;;;4943994;29;20079;-77
2021/07/11 02:03:48;;;;;;;10.63;8.88;;;;;;;;;;4939958;29;20501;-77
2021/07/11 02:06:15;;;;;;;13.38;9.52;;;;;;;;;;4948572;29;20047;-75
2021/07/11 02:08:41;;;;;;;9.98;8.77;;;;;;;;;;4943286;29;20055;-74
2021/07/11 02:11:08;;;;;;;10.00;9.00;;;;;;;;;;4940180;29;20031;-74
2021/07/11 02:13:39;;;;;;;12.27;9.25;;;;;;;;;;4944084;29;20028;-77
2021/07/11 02:16:08;;;;;;;11.90;9.00;;;;;;;;;;4940547;29;20155;-75
2021/07/11 02:18:34;;;;;;;13.10;8.80;;;;;;;;;;4943477;29;20485;-76
2021/07/11 02:21:01;;;;;;;9.80;8.80;;;;;;;;;;4937247;29;20102;-76
2021/07/11 02:23:31;;;;;;;12.98;9.15;;;;;;;;;;4942140;29;20020;-77
2021/07/11 02:25:58;;;;;;;10.18;9.13;;;;;;;;;;4942810;29;20024;-75
2021/07/11 02:28:24;;;;;;;12.07;8.88;;;;;;;;;;4939771;28;20031;-76
2021/07/11 02:31:01;;;;;;;13.13;9.23;;;;;;;;;;4937651;29;20066;-78
2021/07/11 02:33:36;;;;;;;17.23;9.38;;;;;;;;;;4941351;29;20383;-77
2021/07/11 02:36:03;;;;;;;12.38;9.27;;;;;;;;;;4942399;29;20046;-77
2021/07/11 02:38:48;;;;;;;11.38;9.15;;;;;;;;;;4941646;28;20106;-77
2021/07/11 02:41:16;;;;;;;15.13;9.80;;;;;;;;;;4948008;29;20090;-75
2021/07/11 02:43:43;;;;;;;11.18;9.40;;;;;;;;;;4951350;29;20030;-76
2021/07/11 02:46:10;;;;;;;13.95;9.63;;;;;;;;;;4944463;29;20031;-76
2021/07/11 02:48:39;;;;;;;11.68;9.55;;;;;;;;;;4946066;29;20097;-75
2021/07/11 02:51:05;;;;;;;13.32;9.20;;;;;;;;;;4944311;29;20031;-77
2021/07/11 02:53:31;;;;;;;9.93;8.70;;;;;;;;;;4946125;29;20454;-78
2021/07/11 02:55:58;;;;;;;10.73;9.02;;;;;;;;;;4942594;29;20106;-76
2021/07/11 02:58:27;;;;;;;11.40;8.88;;;;;;;;;;4941856;29;20020;-75
2021/07/11 03:00:53;;;;;;;11.45;9.43;;;;;;;;;;4947028;29;20059;-75
2021/07/11 03:03:19;;;;;;;13.32;10.05;;;;;;;;;;4949127;29;20393;-75
2021/07/11 03:05:45;;;;;;;12.90;9.65;;;;;;;;;;4948848;29;20028;-76
2021/07/11 03:08:18;;;;;;;11.05;9.95;;;;;;;;;;4948531;29;20070;-74
2021/07/11 03:10:44;;;;;;;12.30;10.20;;;;;;;;;;4970108;28;20059;-76
2021/07/11 03:13:11;;;;;;;10.88;9.88;;;;;;;;;;4951641;28;20035;-76
2021/07/11 03:15:38;;;;;;;13.32;10.93;;;;;;;;;;4946706;29;20020;-75
2021/07/11 03:18:04;;;;;;;14.23;11.02;;;;;;;;;;4941073;28;20110;-75
2021/07/11 03:20:31;;;;;;;14.88;10.75;;;;;;;;;;4948950;29;20043;-76
2021/07/11 03:22:58;;;;;;;12.52;10.52;;;;;;;;;;4949846;29;20081;-77
2021/07/11 03:25:24;;;;;;;11.60;10.18;;;;;;;;;;4952791;29;20024;-77
2021/07/11 03:27:50;;;;;;;14.70;11.18;;;;;;;;;;4944317;29;20027;-75
2021/07/11 03:30:19;;;;;;;14.13;10.60;;;;;;;;;;4946244;29;20276;-77
2021/07/11 03:32:55;;;;;;;12.65;10.68;;;;;;;;;;4953130;29;20471;-75
2021/07/11 03:35:32;;;;;;;13.80;10.57;;;;;;;;;;4948685;29;20034;-76
2021/07/11 03:38:00;;;;;;;14.35;11.98;;;;;;;;;;4968590;28;20053;-77
2021/07/11 03:40:31;;;;;;;14.88;11.60;;;;;;;;;;4945296;29;20028;-76
2021/07/11 03:42:59;;;;;;;11.90;10.52;;;;;;;;;;4943370;29;20032;-76
2021/07/11 03:45:26;;;;;;;14.68;11.20;;;;;;;;;;4949219;29;20027;-76
2021/07/11 03:47:56;;;;;;;13.57;10.75;;;;;;;;;;4946165;28;20031;-76
2021/07/11 03:50:24;;;;;;;16.60;11.02;;;;;;;;;;4948003;28;20043;-74
2021/07/11 03:52:58;;;;;;;14.95;11.25;;;;;;;;;;4944806;29;20087;-76
2021/07/11 03:55:25;;;;;;;13.30;10.90;;;;;;;;;;4941616;29;20028;-76
2021/07/11 03:57:54;;;;;;;11.75;10.65;;;;;;;;;;4946325;29;20031;-76
2021/07/11 04:00:22;;;;;;;15.60;10.77;;;;;;;;;;4952226;29;20086;-76
2021/07/11 04:02:49;;;;;;;15.02;11.35;;;;;;;;;;4945434;29;20039;-76
2021/07/11 04:05:19;;;;;;;16.52;11.55;;;;;;;;;;4951152;29;20547;-75
2021/07/11 04:07:45;;;;;;;13.68;10.80;;;;;;;;;;4937265;29;20059;-76
2021/07/11 04:10:12;;;;;;;15.98;11.27;;;;;;;;;;4947176;29;20396;-76
2021/07/11 04:12:39;;;;;;;14.77;11.20;;;;;;;;;;4938658;29;20138;-76
2021/07/11 04:15:05;;;;;;;13.10;10.52;;;;;;;;;;4944056;29;20042;-75
2021/07/11 04:17:32;;;;;;;17.63;10.40;;;;;;;;;;4947530;29;20019;-76
2021/07/11 04:19:59;;;;;;;11.75;10.55;;;;;;;;;;4949400;29;20031;-74
2021/07/11 04:22:25;;;;;;;12.43;10.85;;;;;;;;;;4939344;29;20102;-77
2021/07/11 04:24:54;;;;;;;12.32;10.50;;;;;;;;;;4946043;29;20028;-76
2021/07/11 04:27:21;;;;;;;13.10;11.05;;;;;;;;;;4937604;29;20395;-75
2021/07/11 04:29:49;;;;;;;14.43;11.27;;;;;;;;;;4945581;29;20059;-74
2021/07/11 04:32:15;;;;;;;14.88;11.20;;;;;;;;;;4936416;29;20073;-76
2021/07/11 04:34:41;;;;;;;16.67;11.25;;;;;;;;;;4936031;29;20047;-76
2021/07/11 04:37:14;;;;;;;16.38;10.95;;;;;;;;;;4938738;29;20023;-76
2021/07/11 04:39:40;;;;;;;23.30;11.90;;;;;;;;;;4939371;29;20023;-76
2021/07/11 04:42:08;;;;;;;13.52;10.45;;;;;;;;;;4944921;29;20540;-75
2021/07/11 04:44:35;;;;;;;17.40;10.98;;;;;;;;;;4943216;29;20090;-76
2021/07/11 04:47:01;;;;;;;14.88;10.38;;;;;;;;;;4942015;29;20039;-76
2021/07/11 04:49:27;;;;;;;12.70;10.35;;;;;;;;;;4940293;29;20019;-73
2021/07/11 04:51:54;;;;;;;13.85;10.65;;;;;;;;;;4941880;29;20031;-76
2021/07/11 04:54:21;;;;;;;31.83;11.05;;;;;;;;;;4946896;29;20027;-75
2021/07/11 04:56:47;;;;;;;14.98;10.23;;;;;;;;;;4950973;28;20040;-75
2021/07/11 04:59:13;;;;;;;10.90;9.80;;;;;;;;;;4950218;29;20430;-76
2021/07/11 05:01:39;;;;;;;13.55;9.80;;;;;;;;;;4945949;29;20119;-76
2021/07/11 05:04:05;;;;;;;12.27;9.55;;;;;;;;;;4948350;29;20035;-75
2021/07/11 05:06:31;;;;;;;18.00;9.75;;;;;;;;;;4944126;29;20106;-77
2021/07/11 05:08:59;;;;;;;14.55;9.75;;;;;;;;;;4943284;29;20032;-73
2021/07/11 05:11:28;;;;;;;26.52;11.32;;;;;;;;;;4941910;29;20035;-75
2021/07/11 05:13:54;;;;;;;17.30;10.30;;;;;;;;;;4953690;28;20087;-74
2021/07/11 05:16:20;;;;;;;15.32;9.20;;;;;;;;;;4940300;29;20544;-75
2021/07/11 05:18:46;;;;;;;13.80;8.50;;;;;;;;;;4947850;29;20031;-73
2021/07/11 05:21:12;;;;;;;16.08;9.00;;;;;;;;;;4945532;29;20110;-72
2021/07/11 05:23:38;;;;;;;12.18;8.55;;;;;;;;;;4946633;29;20034;-75
2021/07/11 05:26:10;;;;;;;18.70;9.20;;;;;;;;;;4937668;29;20027;-72
2021/07/11 05:28:39;;;;;;;13.35;9.02;;;;;;;;;;4945058;29;20508;-74
2021/07/11 05:31:06;;;;;;;15.50;9.15;;;;;;;;;;4942960;29;20024;-74
2021/07/11 05:33:35;;;;;;;12.98;9.05;;;;;;;;;;4949509;29;20026;-77
2021/07/11 05:36:01;;;;;;;14.70;8.82;;;;;;;;;;4941183;29;20027;-77
2021/07/11 05:38:27;;;;;;;13.23;8.80;;;;;;;;;;4946626;29;20109;-72
2021/07/11 05:40:53;;;;;;;17.17;8.57;;;;;;;;;;4940579;29;20099;-75
2021/07/11 05:43:19;;;;;;;11.02;8.20;;;;;;;;;;4946393;29;20499;-79
2021/07/11 05:45:45;;;;;;;12.20;8.40;;;;;;;;;;4948514;29;20046;-76
2021/07/11 05:48:11;;;;;;;13.65;8.20;;;;;;;;;;4943444;29;20027;-74
2021/07/11 05:50:38;;;;;;;12.52;8.05;;;;;;;;;;4938792;29;20038;-72
2021/07/11 05:53:04;;;;;;;13.90;7.57;;;;;;;;;;4950012;29;20036;-75
2021/07/11 05:55:30;;;;;;;10.85;7.38;;;;;;;;;;4948872;28;20489;-77
2021/07/11 05:57:56;;;;;;;16.10;7.53;;;;;;;;;;4945824;29;20031;-78
2021/07/11 06:00:22;;;;;;;15.07;7.40;;;;;;;;;;4952132;28;20024;-71
2021/07/11 06:02:49;;;;;;;12.73;7.50;;;;;;;;;;4943740;29;20043;-71
2021/07/11 06:05:15;;;;;;;10.15;6.85;;;;;;;;;;4937026;29;20024;-74
2021/07/11 06:07:41;;;;;;;12.80;6.78;;;;;;;;;;4944102;29;20551;-72
2021/07/11 06:10:08;;;;;;;15.13;7.32;;;;;;;;;;4944437;29;20078;-74
2021/07/11 06:12:34;;;;;;;23.80;7.43;;;;;;;;;;4941801;29;20493;-78
2021/07/11 06:15:00;;;;;;;10.27;7.20;;;;;;;;;;4947830;28;20043;-84
2021/07/11 06:17:32;;;;;;;10.68;6.68;;;;;;;;;;4949166;29;20110;-89
2021/07/11 06:19:58;;;;;;;15.13;6.70;;;;;;;;;;4945310;29;20032;-86
2021/07/11 06:22:24;;;;;;;13.32;6.15;;;;;;;;;;4947597;29;20467;-84
2021/07/11 06:24:50;;;;;;;11.30;6.55;;;;;;;;;;4946496;29;20016;-75
2021/07/11 06:27:16;;;;;;;11.85;6.63;;;;;;;;;;4947229;29;20098;-72
2021/07/11 06:29:42;;;;;;;13.50;6.13;;;;;;;;;;4947456;28;20036;-76
2021/07/11 06:32:09;;;;;;;11.52;6.45;;;;;;;;;;4944384;29;20114;-77
2021/07/11 06:34:35;;;;;;;14.45;6.00;;;;;;;;;;4944203;29;20264;-72
2021/07/11 06:37:01;;;;;;;22.50;5.35;;;;;;;;;;4943201;29;20028;-73
2021/07/11 06:39:27;;;;;;;8.70;5.03;;;;;;;;;;4943890;29;20086;-76
2021/07/11 06:41:53;;;;;;;12.27;5.00;;;;;;;;;;4944417;29;20027;-73
2021/07/11 06:44:19;;;;;;;9.45;4.38;;;;;;;;;;4963412;28;20033;-74
2021/07/11 06:46:45;;;;;;;7.65;4.05;;;;;;;;;;4943410;29;20031;-71
2021/07/11 06:49:12;;;;;;;9.63;3.75;;;;;;;;;;4942120;29;20030;-70
2021/07/11 06:51:38;;;;;;;9.32;4.20;;;;;;;;;;4940582;29;20066;-72
2021/07/11 06:54:04;;;;;;;10.98;4.30;;;;;;;;;;4942333;29;20031;-74
2021/07/11 06:56:30;;;;;;;9.65;3.97;;;;;;;;;;4940984;29;20038;-71
2021/07/11 06:58:56;;;;;;;9.90;3.88;;;;;;;;;;4945543;29;20034;-74
2021/07/11 07:01:25;;;;;;;15.45;4.03;;;;;;;;;;4942302;29;20559;-75
2021/07/11 07:03:51;;;;;;;8.25;3.75;;;;;;;;;;4946033;29;20032;-69
2021/07/11 07:06:17;;;;;;;9.90;3.72;;;;;;;;;;4945148;29;20031;-71
2021/07/11 07:08:43;;;;;;;9.73;3.97;;;;;;;;;;4943825;29;20035;-72
2021/07/11 07:11:09;;;;;;;7.53;4.15;;;;;;;;;;4938477;29;20031;-74
2021/07/11 07:13:35;;;;;;;10.68;4.40;;;;;;;;;;4942727;29;20035;-75
2021/07/11 07:16:01;;;;;;;9.07;5.15;;;;;;;;;;4946651;29;20081;-73
2021/07/11 07:18:27;;;;;;;8.85;3.55;;;;;;;;;;4947500;29;20024;-70
2021/07/11 07:20:53;;;;;;;10.60;4.03;;;;;;;;;;4946101;29;20405;-78
2021/07/11 07:23:19;;;;;;;57.70;7.47;;;;;;;;;;4942235;29;20034;-81
2021/07/11 07:25:46;;;;;;;10.45;3.70;;;;;;;;;;4940183;29;20027;-81
2021/07/11 07:28:18;;;;;;;10.70;3.60;;;;;;;;;;4951647;29;20366;-91
2021/07/11 07:30:44;;;;;;;11.27;3.70;;;;;;;;;;4938709;29;20027;-83
2021/07/11 07:33:10;;;;;;;5.53;3.53;;;;;;;;;;4939417;29;20382;-83
2021/07/11 07:35:36;;;;;;;6.53;4.30;;;;;;;;;;4941088;29;20032;-81
2021/07/11 07:38:03;;;;;;;12.10;4.35;;;;;;;;;;4942958;29;20031;-80
2021/07/11 07:40:29;;;;;;;8.70;3.90;;;;;;;;;;4944263;29;20038;-85
2021/07/11 07:42:55;;;;;;;9.57;4.25;;;;;;;;;;4965124;28;20067;-71
2021/07/11 07:45:21;;;;;;;13.95;4.43;;;;;;;;;;4948024;29;20047;-71
2021/07/11 07:47:47;;;;;;;8.32;4.40;;;;;;;;;;4951331;29;20031;-72
2021/07/11 07:50:14;;;;;;;8.18;3.80;;;;;;;;;;4945087;28;20031;-81
2021/07/11 07:52:40;;;;;;;7.55;4.00;;;;;;;;;;4941323;29;20460;-83
2021/07/11 07:55:06;;;;;;;13.25;4.20;;;;;;;;;;4957783;28;20027;-79
2021/07/11 07:57:32;;;;;;;9.90;4.38;;;;;;;;;;4940718;29;20390;-84
2021/07/11 07:59:59;;;;;;;7.10;3.72;;;;;;;;;;4946192;29;20024;-78
2021/07/11 08:02:25;;;;;;;7.57;4.15;;;;;;;;;;4939174;29;20624;-72
2021/07/11 08:04:54;;;;;;;11.75;3.90;;;;;;;;;;4960164;28;20059;-70
2021/07/11 08:07:27;;;;;;;14.80;4.95;;;;;;;;;;4961624;28;20054;-75
2021/07/11 08:09:53;;;;;;;8.05;4.22;;;;;;;;;;4940388;29;20111;-71
2021/07/11 08:12:19;;;;;;;8.23;3.78;;;;;;;;;;4941096;29;20031;-71
2021/07/11 08:14:46;;;;;;;8.48;4.00;;;;;;;;;;4943239;29;20529;-70
2021/07/11 08:17:12;;;;;;;8.55;4.50;;;;;;;;;;4938626;29;20086;-71
2021/07/11 08:19:38;;;;;;;9.80;4.18;;;;;;;;;;4940633;29;20504;-69
2021/07/11 08:22:04;;;;;;;10.10;4.03;;;;;;;;;;4957493;28;20429;-77
2021/07/11 08:24:30;;;;;;;11.48;4.25;;;;;;;;;;4949436;29;20031;-69
2021/07/11 08:26:56;;;;;;;7.45;4.00;;;;;;;;;;4943628;29;20492;-70
2021/07/11 08:29:22;;;;;;;9.10;4.10;;;;;;;;;;4945372;29;20058;-72
2021/07/11 08:31:48;;;;;;;10.55;4.70;;;;;;;;;;4940566;29;20099;-70
2021/07/11 08:34:14;;;;;;;10.95;4.55;;;;;;;;;;4948279;29;20078;-74
2021/07/11 08:36:40;;;;;;;7.68;4.00;;;;;;;;;;4945236;28;20039;-73
2021/07/11 08:39:07;;;;;;;6.97;4.10;;;;;;;;;;4941730;29;20490;-73
2021/07/11 08:41:33;;;;;;;8.57;3.97;;;;;;;;;;4944176;29;20042;-73
2021/07/11 08:44:01;;;;;;;8.25;3.78;;;;;;;;;;4945671;29;20023;-79
2021/07/11 08:46:27;;;;;;;14.35;4.85;;;;;;;;;;4945431;29;20027;-71
2021/07/11 08:48:56;;;;;;;18.02;4.93;;;;;;;;;;4942407;29;20128;-70
2021/07/11 08:51:22;;;;;;;14.63;4.60;;;;;;;;;;4947008;29;20035;-70
2021/07/11 08:53:48;;;;;;;41.92;6.45;;;;;;;;;;4950991;29;20027;-67
2021/07/11 08:56:16;;;;;;;9.85;4.43;;;;;;;;;;4946789;29;20046;-70
2021/07/11 08:58:44;;;;;;;7.43;4.28;;;;;;;;;;4944482;29;20019;-68
2021/07/11 09:01:10;;;;;;;9.45;4.70;;;;;;;;;;4946164;29;20045;-68
2021/07/11 09:03:36;;;;;;;13.82;4.53;;;;;;;;;;4946780;29;20490;-72
2021/07/11 09:06:02;;;;;;;9.15;3.80;;;;;;;;;;4942709;29;20378;-68
2021/07/11 09:08:28;;;;;;;10.30;4.05;;;;;;;;;;4947454;29;20401;-69
2021/07/11 09:10:56;;;;;;;6.88;4.13;;;;;;;;;;4945159;29;20036;-72
2021/07/11 09:13:34;;;;;;;14.15;3.70;;;;;;;;;;4964137;28;20051;-70
2021/07/11 09:16:00;;;;;;;16.73;4.20;;;;;;;;;;4947033;29;20058;-73
2021/07/11 09:18:28;;;;;;;7.60;4.05;;;;;;;;;;4944286;28;20028;-75
2021/07/11 09:20:58;;;;;;;11.63;4.32;;;;;;;;;;4948626;29;20519;-83
2021/07/11 09:23:28;;;;;;;8.43;4.10;;;;;;;;;;4945819;29;20121;-80
2021/07/11 09:25:58;;;;;;;15.35;4.30;;;;;;;;;;4941759;29;20033;-81
2021/07/11 09:28:25;;;;;;;7.85;4.22;;;;;;;;;;4963385;28;20035;-72
2021/07/11 09:31:01;;;;;;;11.02;4.20;;;;;;;;;;4943539;29;20073;-72
2021/07/11 09:33:27;;;;;;;9.43;3.88;;;;;;;;;;4943150;29;20510;-74
2021/07/11 09:36:03;;;;;;;6.32;3.70;;;;;;;;;;4957813;28;20469;-75
2021/07/11 09:38:29;;;;;;;7.40;3.78;;;;;;;;;;4948152;29;20038;-72
2021/07/11 09:40:55;;;;;;;17.60;4.40;;;;;;;;;;4942371;29;20079;-74
2021/07/11 09:43:21;;;;;;;11.35;3.72;;;;;;;;;;4945694;29;20046;-74
2021/07/11 09:45:48;;;;;;;9.55;3.53;;;;;;;;;;4946474;29;20106;-73
2021/07/11 09:48:14;;;;;;;7.25;3.47;;;;;;;;;;4947669;28;20497;-78
2021/07/11 09:50:40;;;;;;;8.70;3.90;;;;;;;;;;4946596;29;20118;-73
2021/07/11 09:53:07;;;;;;;7.35;3.63;;;;;;;;;;4953611;29;20073;-72
2021/07/11 09:55:36;;;;;;;10.68;3.83;;;;;;;;;;4952126;29;20024;-77
2021/07/11 09:58:04;;;;;;;5.97;3.72;;;;;;;;;;4949885;29;20031;-72
2021/07/11 10:00:31;;;;;;;6.88;4.03;;;;;;;;;;4966458;28;20032;-74
2021/07/11 10:02:58;;;;;;;19.15;4.30;;;;;;;;;;4954951;29;20035;-73
2021/07/11 10:05:25;;;;;;;13.88;3.80;;;;;;;;;;4945697;29;20031;-73
2021/07/11 10:07:51;;;;;;;15.77;4.72;;;;;;;;;;4944009;29;20351;-70
2021/07/11 10:10:20;;;;;;;8.57;3.50;;;;;;;;;;4944787;29;20477;-69
2021/07/11 10:12:47;;;;;;;15.55;4.05;;;;;;;;;;4945140;29;20452;-71
2021/07/11 10:15:14;;;;;;;7.00;3.63;;;;;;;;;;4943451;29;20059;-71
2021/07/11 10:17:48;;;;;;;8.13;3.50;;;;;;;;;;4942706;29;20042;-71
2021/07/11 10:20:16;;;;;;;8.30;3.17;;;;;;;;;;4950421;29;20131;-71
2021/07/11 10:22:44;;;;;;;9.23;3.83;;;;;;;;;;4947870;29;20110;-70
2021/07/11 10:25:14;;;;;;;11.13;3.83;;;;;;;;;;4942935;28;20111;-70
2021/07/11 10:27:41;;;;;;;11.23;6.65;;;;;;;;;;4948811;29;20031;-71
2021/07/11 10:30:07;;;;;;;13.85;4.10;;;;;;;;;;4945787;29;20523;-71
2021/07/11 10:32:34;;;;;;;13.95;4.10;;;;;;;;;;4945115;29;20031;-72
2021/07/11 10:35:17;;;;;;;9.38;3.80;;;;;;;;;;4940556;29;20115;-71
2021/07/11 10:37:43;;;;;;;;;;;;;;;;;;4944278;29;20023;-70
2021/07/11 10:40:10;;;;;;;7.28;3.58;;;;;;;;;;4948754;29;19911;-78
2021/07/11 10:42:36;;;;;;;9.93;3.47;;;;;;;;;;4943914;29;20038;-79
2021/07/11 10:45:07;;;;;;;19.30;3.97;;;;;;;;;;4947160;29;20106;-80
2021/07/11 10:47:33;;;;;;;10.18;3.47;;;;;;;;;;4947276;29;20047;-80
2021/07/11 10:49:59;;;;;;;8.30;3.60;;;;;;;;;;4945543;28;20103;-78
2021/07/11 10:52:26;;;;;;;8.60;3.78;;;;;;;;;;4943594;29;20031;-72
2021/07/11 10:54:52;;;;;;;9.73;4.00;;;;;;;;;;4949719;29;20415;-76
2021/07/11 10:57:45;;;;;;;9.50;3.30;;;;;;;;;;4946174;29;20031;-78
2021/07/11 11:00:21;;;;;;;8.50;3.80;;;;;;;;;;4943013;28;20043;-78
2021/07/11 11:02:50;;;;;;;9.35;3.92;;;;;;;;;;4948051;29;20035;-71
2021/07/11 11:05:20;;;;;;;11.35;3.85;;;;;;;;;;4941032;29;20035;-74
2021/07/11 11:07:49;;;;;;;7.25;3.40;;;;;;;;;;4943230;29;20054;-69
2021/07/11 11:10:29;;;;;;;10.90;3.90;;;;;;;;;;4941823;29;20478;-68
2021/07/11 11:12:59;;;;;;;14.05;3.50;;;;;;;;;;4944818;29;20481;-74
2021/07/11 11:15:32;;;;;;;7.38;3.35;;;;;;;;;;4941191;29;20058;-71
2021/07/11 11:17:58;;;;;;;;;;;;;;;;;;4938591;29;20043;-67
2021/07/11 11:20:27;;;;;;;10.30;3.85;;;;;;;;;;4943443;29;20369;-68
2021/07/11 11:22:54;;;;;;;13.70;4.03;;;;;;;;;;4945364;29;20043;-74
2021/07/11 11:25:24;;;;;;;7.07;3.60;;;;;;;;;;4945722;29;20126;-71
2021/07/11 11:27:55;;;;;;;9.38;3.83;;;;;;;;;;4955996;28;20150;-70
2021/07/11 11:30:22;;;;;;;7.43;3.53;;;;;;;;;;4942358;29;20035;-71
2021/07/11 11:32:49;;;;;;;10.95;3.83;;;;;;;;;;4958218;28;20361;-70
2021/07/11 11:35:17;;;;;;;9.80;3.67;;;;;;;;;;4940694;29;20023;-71
2021/07/11 11:37:47;;;;;;;5.05;3.50;;;;;;;;;;4943757;29;20023;-72
2021/07/11 11:40:13;;;;;;;7.55;3.38;;;;;;;;;;4946596;29;20046;-71
2021/07/11 11:42:49;;;;;;;9.50;3.58;;;;;;;;;;4944166;29;20490;-72
2021/07/11 11:45:20;;;;;;;7.70;3.42;;;;;;;;;;4947702;29;20043;-74
2021/07/11 11:47:46;;;;;;;9.18;3.42;;;;;;;;;;4958533;28;20038;-76
2021/07/11 11:50:12;;;;;;;11.65;4.00;;;;;;;;;;4944469;29;20042;-72
2021/07/11 11:52:38;;;;;;;9.50;4.10;;;;;;;;;;4947662;29;20066;-68
2021/07/11 11:55:05;;;;;;;8.25;3.78;;;;;;;;;;4941183;29;20518;-82
2021/07/11 11:57:32;;;;;;;18.40;3.78;;;;;;;;;;4943838;29;20138;-71
2021/07/11 11:59:59;;;;;;;9.13;3.30;;;;;;;;;;4948295;29;20074;-70
2021/07/11 12:02:25;;;;;;;7.95;3.67;;;;;;;;;;4944255;29;20034;-71
2021/07/11 12:04:55;;;;;;;13.43;4.07;;;;;;;;;;4940343;29;20028;-73
2021/07/11 12:07:22;;;;;;;11.98;3.78;;;;;;;;;;4941124;29;20050;-72
2021/07/11 12:09:48;;;;;;;8.40;3.40;;;;;;;;;;4937436;29;20028;-72
2021/07/11 12:12:14;;;;;;;7.13;3.65;;;;;;;;;;4944092;28;20081;-70
2021/07/11 12:14:42;;;;;;;7.18;3.95;;;;;;;;;;4944247;29;20054;-69
2021/07/11 12:17:08;;;;;;;7.15;3.35;;;;;;;;;;4940378;29;20150;-68
2021/07/11 12:19:42;;;;;;;7.20;3.55;;;;;;;;;;4941229;29;20028;-70
2021/07/11 12:22:08;;;;;;;9.90;3.45;;;;;;;;;;4939679;29;20540;-67
2021/07/11 12:24:34;;;;;;;5.03;3.55;;;;;;;;;;4946160;29;20040;-71
2021/07/11 12:27:03;;;;;;;14.45;3.72;;;;;;;;;;4945327;29;20059;-69
2021/07/11 12:29:31;;;;;;;7.28;3.30;;;;;;;;;;4944429;29;20047;-67
2021/07/11 12:31:58;;;;;;;5.10;3.28;;;;;;;;;;4941261;29;20032;-78
2021/07/11 12:34:24;;;;;;;20.20;3.90;;;;;;;;;;4949373;29;20042;-80
2021/07/11 12:36:55;;;;;;;7.35;3.50;;;;;;;;;;4938429;29;20031;-71
2021/07/11 12:39:22;;;;;;;5.75;3.80;;;;;;;;;;4942122;29;20036;-70
2021/07/11 12:41:49;;;;;;;7.22;3.72;;;;;;;;;;4948403;29;20036;-73
2021/07/11 12:44:17;;;;;;;8.85;3.75;;;;;;;;;;4951633;29;20041;-70
2021/07/11 12:46:44;;;;;;;6.80;3.08;;;;;;;;;;4943823;29;20036;-71
2021/07/11 12:49:11;;;;;;;9.45;4.07;;;;;;;;;;4961217;28;20039;-71
2021/07/11 12:51:40;;;;;;;5.93;3.25;;;;;;;;;;4943116;29;20039;-70
2021/07/11 12:54:09;;;;;;;9.05;3.35;;;;;;;;;;4951632;29;20437;-73
2021/07/11 12:56:35;;;;;;;9.10;3.50;;;;;;;;;;4945665;29;20111;-72
2021/07/11 12:59:02;;;;;;;9.27;3.92;;;;;;;;;;4942166;29;20397;-72
2021/07/11 13:01:29;;;;;;;11.13;3.65;;;;;;;;;;4942387;29;20035;-73
2021/07/11 13:03:58;;;;;;;5.28;3.40;;;;;;;;;;4941884;29;20031;-71
2021/07/11 13:06:33;;;;;;;10.25;3.88;;;;;;;;;;4946962;29;20027;-71
2021/07/11 13:09:00;;;;;;;12.75;3.50;;;;;;;;;;4942881;29;20027;-71
2021/07/11 13:11:26;;;;;;;5.35;3.78;;;;;;;;;;4949485;28;20043;-71
2021/07/11 13:13:52;;;;;;;10.48;3.50;;;;;;;;;;4939114;29;20024;-73
2021/07/11 13:16:19;;;;;;;5.80;3.40;;;;;;;;;;4935800;29;20035;-73
2021/07/11 13:18:45;;;;;;;6.57;3.70;;;;;;;;;;4949372;29;20030;-75
2021/07/11 13:21:11;;;;;;;6.93;3.60;;;;;;;;;;4954576;28;20050;-73
2021/07/11 13:23:38;;;;;;;14.02;4.28;;;;;;;;;;4947211;29;20032;-74
2021/07/11 13:26:05;;;;;;;11.75;3.80;;;;;;;;;;4940067;29;20051;-74
2021/07/11 13:28:31;;;;;;;4.82;3.00;;;;;;;;;;4942153;29;20102;-73
2021/07/11 13:30:58;;;;;;;7.05;3.50;;;;;;;;;;4943871;29;20027;-72
2021/07/11 13:33:24;;;;;;;11.07;3.75;;;;;;;;;;4939090;29;20027;-72
2021/07/11 13:35:50;;;;;;;7.45;3.75;;;;;;;;;;4941114;29;20024;-74
2021/07/11 13:38:17;;;;;;;6.20;3.40;;;;;;;;;;4945372;29;20493;-73
2021/07/11 13:40:43;;;;;;;7.75;3.78;;;;;;;;;;4942967;29;20063;-72
2021/07/11 13:43:10;;;;;;;6.57;3.75;;;;;;;;;;4946369;29;20046;-72
2021/07/11 13:45:40;;;;;;;6.63;3.42;;;;;;;;;;4945674;29;20046;-71
2021/07/11 13:48:07;;;;;;;6.47;3.72;;;;;;;;;;4943221;29;20142;-72
2021/07/11 13:50:36;;;;;;;10.50;3.90;;;;;;;;;;4943800;29;20031;-73
2021/07/11 13:53:03;;;;;;;6.25;3.90;;;;;;;;;;4956581;28;20040;-71
2021/07/11 13:55:29;;;;;;;7.35;3.72;;;;;;;;;;4942725;29;20078;-75
2021/07/11 13:57:55;;;;;;;4.13;3.50;;;;;;;;;;4946251;29;20023;-72
2021/07/11 14:00:21;;;;;;;7.30;3.47;;;;;;;;;;4945445;29;20214;-72
2021/07/11 14:02:51;;;;;;;8.30;3.65;;;;;;;;;;4940808;29;20094;-70
2021/07/11 14:05:17;;;;;;;12.70;4.05;;;;;;;;;;4941408;29;20487;-72
2021/07/11 14:07:43;;;;;;;5.07;3.92;;;;;;;;;;4955255;28;20066;-73
2021/07/11 14:10:10;;;;;;;6.00;3.70;;;;;;;;;;4935550;29;20495;-72
2021/07/11 14:12:39;;;;;;;5.20;3.85;;;;;;;;;;4945109;29;20035;-71
2021/07/11 14:15:06;;;;;;;8.25;3.72;;;;;;;;;;4933828;29;20031;-73
2021/07/11 14:17:32;;;;;;;8.85;3.95;;;;;;;;;;4935363;29;20371;-72
2021/07/11 14:19:58;;;;;;;7.20;3.65;;;;;;;;;;4958069;28;20082;-75
2021/07/11 14:22:24;;;;;;;6.93;3.88;;;;;;;;;;4938828;29;20040;-72
2021/07/11 14:24:50;;;;;;;8.25;3.80;;;;;;;;;;4941389;29;20474;-74
2021/07/11 14:27:17;;;;;;;8.57;3.78;;;;;;;;;;4947607;28;20564;-76
2021/07/11 14:29:43;;;;;;;10.50;3.85;;;;;;;;;;4944526;29;20024;-71
2021/07/11 14:32:09;;;;;;;8.85;4.93;;;;;;;;;;4945494;29;20532;-77
2021/07/11 14:34:35;;;;;;;24.60;4.63;;;;;;;;;;4943311;28;20042;-78